Observations for ALICANTE EL ALTET, Spain (LEAL)

LEAL 221230Z 18007KT 120V240 CAVOK 30/16 Q1017 NOSIG
LEAL 221200Z 18005KT 120V250 CAVOK 30/15 Q1018 NOSIG
LEAL 221130Z 15005KT 070V230 CAVOK 30/14 Q1018 NOSIG
LEAL 221100Z 16006KT 080V250 CAVOK 30/12 Q1018 NOSIG
LEAL 221030Z 20005KT 130V300 CAVOK 30/10 Q1018 NOSIG
LEAL 221000Z 17005KT 100V250 CAVOK 29/11 Q1019 NOSIG
LEAL 220930Z VRB04KT CAVOK 29/13 Q1019 NOSIG
LEAL 220900Z 18003KT 090V240 CAVOK 29/12 Q1019 NOSIG
LEAL 220830Z VRB02KT CAVOK 28/14 Q1019 NOSIG
LEAL 220800Z VRB02KT CAVOK 27/14 Q1019 NOSIG
LEAL 220730Z 26003KT 230V320 CAVOK 26/16 Q1018 NOSIG
LEAL 220700Z 29004KT 260V320 CAVOK 24/17 Q1018 NOSIG
LEAL 220630Z 26003KT CAVOK 22/17 Q1018 NOSIG
LEAL 220600Z 27004KT CAVOK 21/17 Q1018 NOSIG
LEAL 220530Z 27005KT CAVOK 20/17 Q1018 NOSIG
LEAL 220500Z 26003KT CAVOK 20/16 Q1018 NOSIG
LEAL 220430Z 27004KT CAVOK 20/17 Q1018 NOSIG
LEAL 220400Z 27003KT CAVOK 20/17 Q1018 NOSIG
LEAL 220330Z 26004KT CAVOK 20/17 Q1018 NOSIG
LEAL 220300Z 27004KT CAVOK 21/17 Q1018 NOSIG
LEAL 220230Z 27003KT CAVOK 22/17 Q1018 NOSIG
LEAL 220200Z 30003KT 260V320 CAVOK 22/17 Q1018 NOSIG
LEAL 220130Z 30003KT CAVOK 22/17 Q1018 NOSIG
LEAL 220100Z 31003KT CAVOK 22/17 Q1018 NOSIG
LEAL 220030Z 30003KT 260V340 CAVOK 23/18 Q1018 NOSIG
LEAL 220000Z 31004KT 280V010 CAVOK 23/18 Q1018 NOSIG
LEAL 212330Z 30003KT CAVOK 23/18 Q1018 NOSIG
LEAL 212300Z 32004KT 290V360 CAVOK 24/18 Q1019 NOSIG
LEAL 212230Z VRB02KT CAVOK 24/18 Q1019 NOSIG
LEAL 212200Z 00000KT CAVOK 25/19 Q1019 NOSIG
LEAL 212130Z VRB01KT CAVOK 25/19 Q1019 NOSIG
LEAL 212100Z 00000KT CAVOK 25/20 Q1019 NOSIG
LEAL 212030Z 05003KT CAVOK 26/20 Q1019 NOSIG
LEAL 212000Z 07003KT 030V110 CAVOK 26/19 Q1018 NOSIG
LEAL 211930Z 10004KT CAVOK 26/19 Q1018 NOSIG
LEAL 211900Z 10005KT 080V140 CAVOK 26/19 Q1018 NOSIG
LEAL 211830Z 10006KT 060V130 CAVOK 26/19 Q1018 NOSIG
LEAL 211800Z 09006KT 050V130 CAVOK 26/19 Q1018 NOSIG
LEAL 211730Z 09006KT 060V120 9999 FEW025 27/19 Q1018 NOSIG  
LEAL 211700Z 09007KT 060V130 9999 FEW025 27/19 Q1018 NOSIG  
LEAL 211630Z 09008KT 9999 FEW025 27/19 Q1018 NOSIG  
LEAL 211600Z 09008KT 050V140 9999 FEW025 27/20 Q1018 NOSIG  
LEAL 211530Z 09009KT 050V150 9999 FEW025 27/20 Q1018 NOSIG  
LEAL 211500Z 09009KT 060V140 9999 FEW025 28/20 Q1018 NOSIG  
LEAL 211430Z 09009KT 060V150 9999 FEW025 28/21 Q1018 NOSIG  
LEAL 211400Z 09009KT 050V130 9999 FEW025 28/21 Q1019 NOSIG  
LEAL 211330Z 10009KT 060V140 9999 FEW025 28/20 Q1019 NOSIG  
LEAL 211300Z 11009KT 060V160 9999 FEW025 28/20 Q1019 NOSIG  
LEAL 211230Z 08009KT 9999 FEW025 28/20 Q1020 NOSIG  
LEAL 211200Z 09008KT 050V170 9999 FEW025 28/21 Q1020 NOSIG